sensor_id;sensor_type;location;lat;lon;timestamp;P1;durP1;ratioP1;P2;durP2;ratioP2
70576;SDS011;58138;43.138;24.702;2023-02-05T00:00:17;5.55;;;4.32;;
70576;SDS011;58138;43.138;24.702;2023-02-05T00:02:43;5.55;;;3.45;;
70576;SDS011;58138;43.138;24.702;2023-02-05T00:05:11;14.90;;;5.63;;
70576;SDS011;58138;43.138;24.702;2023-02-05T00:07:36;7.13;;;3.70;;
70576;SDS011;58138;43.138;24.702;2023-02-05T00:10:05;10.60;;;5.53;;
70576;SDS011;58138;43.138;24.702;2023-02-05T00:12:31;8.18;;;3.63;;
70576;SDS011;58138;43.138;24.702;2023-02-05T00:14:57;6.65;;;4.28;;
70576;SDS011;58138;43.138;24.702;2023-02-05T00:17:25;6.43;;;3.85;;
70576;SDS011;58138;43.138;24.702;2023-02-05T00:19:52;6.10;;;4.18;;
70576;SDS011;58138;43.138;24.702;2023-02-05T00:22:18;5.85;;;4.30;;
70576;SDS011;58138;43.138;24.702;2023-02-05T00:24:44;10.38;;;3.95;;
70576;SDS011;58138;43.138;24.702;2023-02-05T00:27:10;17.55;;;6.07;;
70576;SDS011;58138;43.138;24.702;2023-02-05T00:29:36;12.70;;;6.05;;
70576;SDS011;58138;43.138;24.702;2023-02-05T00:32:05;17.23;;;7.15;;
70576;SDS011;58138;43.138;24.702;2023-02-05T00:34:30;16.38;;;6.70;;
70576;SDS011;58138;43.138;24.702;2023-02-05T00:36:56;24.55;;;11.95;;
70576;SDS011;58138;43.138;24.702;2023-02-05T00:39:22;11.40;;;8.15;;
70576;SDS011;58138;43.138;24.702;2023-02-05T00:41:48;12.05;;;8.02;;
70576;SDS011;58138;43.138;24.702;2023-02-05T00:44:14;10.88;;;7.50;;
70576;SDS011;58138;43.138;24.702;2023-02-05T00:46:43;13.10;;;8.57;;
70576;SDS011;58138;43.138;24.702;2023-02-05T00:49:09;8.18;;;5.60;;
70576;SDS011;58138;43.138;24.702;2023-02-05T00:51:35;7.65;;;4.63;;
70576;SDS011;58138;43.138;24.702;2023-02-05T00:54:04;5.75;;;3.70;;
70576;SDS011;58138;43.138;24.702;2023-02-05T00:56:30;4.32;;;3.30;;
70576;SDS011;58138;43.138;24.702;2023-02-05T00:58:56;7.55;;;4.57;;
70576;SDS011;58138;43.138;24.702;2023-02-05T01:01:21;4.97;;;3.72;;
70576;SDS011;58138;43.138;24.702;2023-02-05T01:03:47;8.25;;;5.18;;
70576;SDS011;58138;43.138;24.702;2023-02-05T01:06:13;8.20;;;5.30;;
70576;SDS011;58138;43.138;24.702;2023-02-05T01:08:42;8.57;;;5.60;;
70576;SDS011;58138;43.138;24.702;2023-02-05T01:11:08;9.27;;;7.07;;
70576;SDS011;58138;43.138;24.702;2023-02-05T01:13:36;11.43;;;7.13;;
70576;SDS011;58138;43.138;24.702;2023-02-05T01:16:04;7.35;;;5.38;;
70576;SDS011;58138;43.138;24.702;2023-02-05T01:18:30;12.85;;;8.80;;
70576;SDS011;58138;43.138;24.702;2023-02-05T01:20:56;9.88;;;6.63;;
70576;SDS011;58138;43.138;24.702;2023-02-05T01:23:23;10.10;;;6.90;;
70576;SDS011;58138;43.138;24.702;2023-02-05T01:25:49;8.00;;;5.20;;
70576;SDS011;58138;43.138;24.702;2023-02-05T01:28:14;10.25;;;7.43;;
70576;SDS011;58138;43.138;24.702;2023-02-05T01:30:40;10.35;;;6.80;;
70576;SDS011;58138;43.138;24.702;2023-02-05T01:33:06;7.63;;;5.60;;
70576;SDS011;58138;43.138;24.702;2023-02-05T01:35:32;11.90;;;7.43;;
70576;SDS011;58138;43.138;24.702;2023-02-05T01:38:01;13.95;;;8.50;;
70576;SDS011;58138;43.138;24.702;2023-02-05T01:40:27;12.68;;;8.23;;
70576;SDS011;58138;43.138;24.702;2023-02-05T01:42:52;7.45;;;5.57;;
70576;SDS011;58138;43.138;24.702;2023-02-05T01:47:48;7.85;;;5.32;;
70576;SDS011;58138;43.138;24.702;2023-02-05T01:50:18;8.60;;;6.28;;
70576;SDS011;58138;43.138;24.702;2023-02-05T01:52:47;14.73;;;9.30;;
70576;SDS011;58138;43.138;24.702;2023-02-05T01:55:13;16.88;;;10.90;;
70576;SDS011;58138;43.138;24.702;2023-02-05T01:57:40;19.67;;;12.50;;
70576;SDS011;58138;43.138;24.702;2023-02-05T02:00:08;22.67;;;14.50;;
70576;SDS011;58138;43.138;24.702;2023-02-05T02:02:35;23.77;;;15.32;;
70576;SDS011;58138;43.138;24.702;2023-02-05T02:05:06;23.88;;;14.85;;
70576;SDS011;58138;43.138;24.702;2023-02-05T02:07:34;18.33;;;12.70;;
70576;SDS011;58138;43.138;24.702;2023-02-05T02:10:00;19.95;;;13.13;;
70576;SDS011;58138;43.138;24.702;2023-02-05T02:12:32;20.13;;;12.75;;
70576;SDS011;58138;43.138;24.702;2023-02-05T02:15:02;21.35;;;13.85;;
70576;SDS011;58138;43.138;24.702;2023-02-05T02:17:31;22.42;;;14.15;;
70576;SDS011;58138;43.138;24.702;2023-02-05T02:20:10;19.98;;;13.35;;
70576;SDS011;58138;43.138;24.702;2023-02-05T02:22:42;20.10;;;13.52;;
70576;SDS011;58138;43.138;24.702;2023-02-05T02:33:18;22.20;;;13.45;;
70576;SDS011;58138;43.138;24.702;2023-02-05T02:46:41;19.38;;;12.55;;
70576;SDS011;58138;43.138;24.702;2023-02-05T02:49:23;20.80;;;12.23;;
70576;SDS011;58138;43.138;24.702;2023-02-05T02:51:52;19.83;;;12.70;;
70576;SDS011;58138;43.138;24.702;2023-02-05T02:54:20;19.30;;;13.38;;
70576;SDS011;58138;43.138;24.702;2023-02-05T02:56:47;19.55;;;13.70;;
70576;SDS011;58138;43.138;24.702;2023-02-05T02:59:17;21.35;;;13.85;;
70576;SDS011;58138;43.138;24.702;2023-02-05T03:01:48;19.95;;;12.13;;
70576;SDS011;58138;43.138;24.702;2023-02-05T03:04:19;19.42;;;13.80;;
70576;SDS011;58138;43.138;24.702;2023-02-05T03:06:49;23.23;;;14.73;;
70576;SDS011;58138;43.138;24.702;2023-02-05T03:09:29;21.13;;;13.77;;
70576;SDS011;58138;43.138;24.702;2023-02-05T03:12:04;22.35;;;13.85;;
70576;SDS011;58138;43.138;24.702;2023-02-05T03:14:31;22.83;;;13.30;;
70576;SDS011;58138;43.138;24.702;2023-02-05T03:16:57;21.00;;;13.65;;
70576;SDS011;58138;43.138;24.702;2023-02-05T03:19:23;21.88;;;13.48;;
70576;SDS011;58138;43.138;24.702;2023-02-05T03:21:50;20.45;;;13.75;;
70576;SDS011;58138;43.138;24.702;2023-02-05T03:24:20;19.20;;;13.55;;
70576;SDS011;58138;43.138;24.702;2023-02-05T03:26:46;22.20;;;14.30;;
70576;SDS011;58138;43.138;24.702;2023-02-05T03:29:14;20.30;;;13.10;;
70576;SDS011;58138;43.138;24.702;2023-02-05T03:40:13;24.55;;;14.45;;
70576;SDS011;58138;43.138;24.702;2023-02-05T03:42:59;19.63;;;12.63;;
70576;SDS011;58138;43.138;24.702;2023-02-05T03:53:40;21.25;;;13.48;;
70576;SDS011;58138;43.138;24.702;2023-02-05T03:56:31;19.23;;;12.18;;
70576;SDS011;58138;43.138;24.702;2023-02-05T03:59:00;16.05;;;11.15;;
70576;SDS011;58138;43.138;24.702;2023-02-05T04:01:27;14.35;;;9.30;;
70576;SDS011;58138;43.138;24.702;2023-02-05T04:03:53;12.10;;;8.60;;
70576;SDS011;58138;43.138;24.702;2023-02-05T04:06:19;9.55;;;6.47;;
70576;SDS011;58138;43.138;24.702;2023-02-05T04:08:45;13.10;;;7.95;;
70576;SDS011;58138;43.138;24.702;2023-02-05T04:11:11;14.40;;;8.57;;
70576;SDS011;58138;43.138;24.702;2023-02-05T04:13:39;13.23;;;7.95;;
70576;SDS011;58138;43.138;24.702;2023-02-05T04:16:05;12.98;;;8.25;;
70576;SDS011;58138;43.138;24.702;2023-02-05T04:18:31;12.10;;;8.40;;
70576;SDS011;58138;43.138;24.702;2023-02-05T04:20:58;11.35;;;7.68;;
70576;SDS011;58138;43.138;24.702;2023-02-05T04:23:25;12.05;;;7.90;;
70576;SDS011;58138;43.138;24.702;2023-02-05T04:25:52;14.88;;;10.50;;
70576;SDS011;58138;43.138;24.702;2023-02-05T04:28:18;13.18;;;8.73;;
70576;SDS011;58138;43.138;24.702;2023-02-05T04:30:44;12.75;;;8.60;;
70576;SDS011;58138;43.138;24.702;2023-02-05T04:33:09;14.32;;;9.27;;
70576;SDS011;58138;43.138;24.702;2023-02-05T04:35:37;14.70;;;9.52;;
70576;SDS011;58138;43.138;24.702;2023-02-05T04:38:04;17.05;;;10.75;;
70576;SDS011;58138;43.138;24.702;2023-02-05T04:40:30;12.45;;;9.40;;
70576;SDS011;58138;43.138;24.702;2023-02-05T04:42:55;15.73;;;9.98;;
70576;SDS011;58138;43.138;24.702;2023-02-05T04:45:21;12.68;;;9.15;;
70576;SDS011;58138;43.138;24.702;2023-02-05T04:47:47;14.10;;;8.77;;
70576;SDS011;58138;43.138;24.702;2023-02-05T04:50:16;13.73;;;9.00;;
70576;SDS011;58138;43.138;24.702;2023-02-05T04:52:42;13.25;;;9.63;;
70576;SDS011;58138;43.138;24.702;2023-02-05T04:55:08;12.55;;;8.32;;
70576;SDS011;58138;43.138;24.702;2023-02-05T04:57:37;16.08;;;10.35;;
70576;SDS011;58138;43.138;24.702;2023-02-05T05:00:03;13.52;;;8.32;;
70576;SDS011;58138;43.138;24.702;2023-02-05T05:02:30;15.27;;;10.13;;
70576;SDS011;58138;43.138;24.702;2023-02-05T05:04:58;13.32;;;8.68;;
70576;SDS011;58138;43.138;24.702;2023-02-05T05:07:24;13.30;;;8.88;;
70576;SDS011;58138;43.138;24.702;2023-02-05T05:09:50;8.13;;;5.63;;
70576;SDS011;58138;43.138;24.702;2023-02-05T05:12:19;17.65;;;8.93;;
70576;SDS011;58138;43.138;24.702;2023-02-05T05:14:45;11.88;;;7.78;;
70576;SDS011;58138;43.138;24.702;2023-02-05T05:17:11;27.70;;;15.20;;
70576;SDS011;58138;43.138;24.702;2023-02-05T05:19:39;12.43;;;8.18;;
70576;SDS011;58138;43.138;24.702;2023-02-05T05:22:04;12.18;;;8.50;;
70576;SDS011;58138;43.138;24.702;2023-02-05T05:24:30;18.13;;;10.25;;
70576;SDS011;58138;43.138;24.702;2023-02-05T05:26:56;12.32;;;8.45;;
70576;SDS011;58138;43.138;24.702;2023-02-05T05:29:21;14.15;;;9.40;;
70576;SDS011;58138;43.138;24.702;2023-02-05T05:31:47;14.95;;;10.60;;
70576;SDS011;58138;43.138;24.702;2023-02-05T05:34:16;16.00;;;10.18;;
70576;SDS011;58138;43.138;24.702;2023-02-05T05:36:42;16.33;;;10.77;;
70576;SDS011;58138;43.138;24.702;2023-02-05T05:39:08;14.57;;;10.55;;
70576;SDS011;58138;43.138;24.702;2023-02-05T05:41:55;14.40;;;9.45;;
70576;SDS011;58138;43.138;24.702;2023-02-05T05:44:39;14.85;;;9.30;;
70576;SDS011;58138;43.138;24.702;2023-02-05T05:47:07;17.00;;;10.82;;
70576;SDS011;58138;43.138;24.702;2023-02-05T05:49:33;11.93;;;7.53;;
70576;SDS011;58138;43.138;24.702;2023-02-05T05:52:00;15.48;;;9.88;;
70576;SDS011;58138;43.138;24.702;2023-02-05T05:54:26;20.20;;;12.68;;
70576;SDS011;58138;43.138;24.702;2023-02-05T05:56:52;19.98;;;12.15;;
70576;SDS011;58138;43.138;24.702;2023-02-05T05:59:18;11.20;;;5.88;;
70576;SDS011;58138;43.138;24.702;2023-02-05T06:01:48;19.30;;;12.30;;
70576;SDS011;58138;43.138;24.702;2023-02-05T06:04:14;22.50;;;12.80;;
70576;SDS011;58138;43.138;24.702;2023-02-05T06:06:40;20.20;;;12.50;;
70576;SDS011;58138;43.138;24.702;2023-02-05T06:09:06;15.52;;;7.70;;
70576;SDS011;58138;43.138;24.702;2023-02-05T06:11:32;24.85;;;15.43;;
70576;SDS011;58138;43.138;24.702;2023-02-05T06:13:58;20.05;;;12.48;;
70576;SDS011;58138;43.138;24.702;2023-02-05T06:16:27;108.20;;;43.97;;
70576;SDS011;58138;43.138;24.702;2023-02-05T06:18:53;39.92;;;22.42;;
70576;SDS011;58138;43.138;24.702;2023-02-05T06:21:19;13.52;;;7.60;;
70576;SDS011;58138;43.138;24.702;2023-02-05T06:23:46;16.60;;;9.50;;
70576;SDS011;58138;43.138;24.702;2023-02-05T06:26:12;29.88;;;16.52;;
70576;SDS011;58138;43.138;24.702;2023-02-05T06:28:37;19.05;;;11.32;;
70576;SDS011;58138;43.138;24.702;2023-02-05T06:31:07;42.47;;;20.55;;
70576;SDS011;58138;43.138;24.702;2023-02-05T06:33:34;32.85;;;16.92;;
70576;SDS011;58138;43.138;24.702;2023-02-05T06:36:00;16.85;;;8.90;;
70576;SDS011;58138;43.138;24.702;2023-02-05T06:38:30;28.75;;;16.23;;
70576;SDS011;58138;43.138;24.702;2023-02-05T06:40:56;19.65;;;10.60;;
70576;SDS011;58138;43.138;24.702;2023-02-05T06:43:21;24.33;;;11.32;;
70576;SDS011;58138;43.138;24.702;2023-02-05T06:45:51;19.60;;;10.55;;
70576;SDS011;58138;43.138;24.702;2023-02-05T06:48:17;22.83;;;11.52;;
70576;SDS011;58138;43.138;24.702;2023-02-05T06:50:43;11.98;;;5.57;;
70576;SDS011;58138;43.138;24.702;2023-02-05T06:53:09;13.32;;;8.73;;
70576;SDS011;58138;43.138;24.702;2023-02-05T06:55:36;16.65;;;9.25;;
70576;SDS011;58138;43.138;24.702;2023-02-05T06:58:02;17.70;;;9.80;;
70576;SDS011;58138;43.138;24.702;2023-02-05T07:00:31;18.20;;;9.38;;
70576;SDS011;58138;43.138;24.702;2023-02-05T07:02:57;9.52;;;4.07;;
70576;SDS011;58138;43.138;24.702;2023-02-05T07:05:23;13.27;;;8.32;;
70576;SDS011;58138;43.138;24.702;2023-02-05T07:07:49;13.05;;;7.70;;
70576;SDS011;58138;43.138;24.702;2023-02-05T07:10:14;29.30;;;18.08;;
70576;SDS011;58138;43.138;24.702;2023-02-05T07:12:40;15.50;;;9.18;;
70576;SDS011;58138;43.138;24.702;2023-02-05T07:15:06;11.32;;;6.68;;
70576;SDS011;58138;43.138;24.702;2023-02-05T07:17:32;16.15;;;10.02;;
70576;SDS011;58138;43.138;24.702;2023-02-05T07:19:59;27.10;;;15.25;;
70576;SDS011;58138;43.138;24.702;2023-02-05T07:22:26;23.60;;;16.25;;
70576;SDS011;58138;43.138;24.702;2023-02-05T07:24:52;23.60;;;14.32;;
70576;SDS011;58138;43.138;24.702;2023-02-05T07:27:18;17.10;;;9.68;;
70576;SDS011;58138;43.138;24.702;2023-02-05T07:29:46;13.52;;;5.97;;
70576;SDS011;58138;43.138;24.702;2023-02-05T07:32:11;13.85;;;9.07;;
70576;SDS011;58138;43.138;24.702;2023-02-05T07:34:37;7.20;;;4.00;;
70576;SDS011;58138;43.138;24.702;2023-02-05T07:37:06;8.32;;;4.63;;
70576;SDS011;58138;43.138;24.702;2023-02-05T07:39:33;12.05;;;6.05;;
70576;SDS011;58138;43.138;24.702;2023-02-05T07:41:59;17.70;;;10.35;;
70576;SDS011;58138;43.138;24.702;2023-02-05T07:44:26;15.45;;;8.55;;
70576;SDS011;58138;43.138;24.702;2023-02-05T07:46:52;17.05;;;9.57;;
70576;SDS011;58138;43.138;24.702;2023-02-05T07:49:18;15.45;;;8.80;;
70576;SDS011;58138;43.138;24.702;2023-02-05T07:51:46;9.18;;;5.28;;
70576;SDS011;58138;43.138;24.702;2023-02-05T07:54:11;21.90;;;11.85;;
70576;SDS011;58138;43.138;24.702;2023-02-05T07:56:39;18.02;;;11.38;;
70576;SDS011;58138;43.138;24.702;2023-02-05T07:59:07;14.95;;;10.00;;
70576;SDS011;58138;43.138;24.702;2023-02-05T08:01:33;11.38;;;6.50;;
70576;SDS011;58138;43.138;24.702;2023-02-05T08:04:00;13.57;;;8.25;;
70576;SDS011;58138;43.138;24.702;2023-02-05T08:06:26;14.13;;;9.27;;
70576;SDS011;58138;43.138;24.702;2023-02-05T08:08:52;13.75;;;8.15;;
70576;SDS011;58138;43.138;24.702;2023-02-05T08:11:17;15.18;;;8.82;;
70576;SDS011;58138;43.138;24.702;2023-02-05T08:13:48;17.80;;;9.50;;
70576;SDS011;58138;43.138;24.702;2023-02-05T08:16:14;14.10;;;7.72;;
70576;SDS011;58138;43.138;24.702;2023-02-05T08:18:40;12.23;;;7.18;;
70576;SDS011;58138;43.138;24.702;2023-02-05T08:21:06;19.27;;;10.73;;
70576;SDS011;58138;43.138;24.702;2023-02-05T08:23:32;37.63;;;18.75;;
70576;SDS011;58138;43.138;24.702;2023-02-05T08:25:58;32.95;;;17.35;;
70576;SDS011;58138;43.138;24.702;2023-02-05T08:28:25;18.92;;;11.32;;
70576;SDS011;58138;43.138;24.702;2023-02-05T08:30:51;31.00;;;15.90;;
70576;SDS011;58138;43.138;24.702;2023-02-05T08:33:17;13.35;;;9.20;;
70576;SDS011;58138;43.138;24.702;2023-02-05T08:35:43;13.55;;;9.00;;
70576;SDS011;58138;43.138;24.702;2023-02-05T08:38:08;10.60;;;7.18;;
70576;SDS011;58138;43.138;24.702;2023-02-05T08:40:34;9.25;;;6.47;;
70576;SDS011;58138;43.138;24.702;2023-02-05T08:43:00;11.88;;;7.13;;
70576;SDS011;58138;43.138;24.702;2023-02-05T08:45:26;13.38;;;7.28;;
70576;SDS011;58138;43.138;24.702;2023-02-05T08:47:53;12.75;;;7.45;;
70576;SDS011;58138;43.138;24.702;2023-02-05T08:50:20;9.68;;;6.03;;
70576;SDS011;58138;43.138;24.702;2023-02-05T08:52:47;8.25;;;5.03;;
70576;SDS011;58138;43.138;24.702;2023-02-05T08:55:13;9.82;;;6.00;;
70576;SDS011;58138;43.138;24.702;2023-02-05T08:57:42;15.10;;;8.82;;
70576;SDS011;58138;43.138;24.702;2023-02-05T09:00:09;44.47;;;23.13;;
70576;SDS011;58138;43.138;24.702;2023-02-05T09:02:39;17.88;;;10.95;;
70576;SDS011;58138;43.138;24.702;2023-02-05T09:05:07;13.60;;;7.00;;
70576;SDS011;58138;43.138;24.702;2023-02-05T09:07:33;13.93;;;8.00;;
70576;SDS011;58138;43.138;24.702;2023-02-05T09:10:05;11.98;;;8.02;;
70576;SDS011;58138;43.138;24.702;2023-02-05T09:12:32;11.75;;;6.80;;
70576;SDS011;58138;43.138;24.702;2023-02-05T09:14:58;7.75;;;5.35;;
70576;SDS011;58138;43.138;24.702;2023-02-05T09:17:26;9.82;;;6.40;;
70576;SDS011;58138;43.138;24.702;2023-02-05T09:19:52;9.38;;;6.22;;
70576;SDS011;58138;43.138;24.702;2023-02-05T09:22:18;9.75;;;6.38;;
70576;SDS011;58138;43.138;24.702;2023-02-05T09:24:44;11.60;;;8.07;;
70576;SDS011;58138;43.138;24.702;2023-02-05T09:27:10;13.85;;;8.50;;
70576;SDS011;58138;43.138;24.702;2023-02-05T09:29:38;11.13;;;6.38;;
70576;SDS011;58138;43.138;24.702;2023-02-05T09:32:05;7.85;;;4.95;;
70576;SDS011;58138;43.138;24.702;2023-02-05T09:34:31;12.57;;;6.80;;
70576;SDS011;58138;43.138;24.702;2023-02-05T09:36:57;10.40;;;6.20;;
70576;SDS011;58138;43.138;24.702;2023-02-05T09:39:23;10.10;;;5.78;;
70576;SDS011;58138;43.138;24.702;2023-02-05T09:41:54;7.80;;;5.28;;
70576;SDS011;58138;43.138;24.702;2023-02-05T09:50:26;14.25;;;8.50;;
70576;SDS011;58138;43.138;24.702;2023-02-05T09:52:56;24.83;;;13.25;;
70576;SDS011;58138;43.138;24.702;2023-02-05T09:55:30;10.38;;;6.82;;
70576;SDS011;58138;43.138;24.702;2023-02-05T10:00:33;19.40;;;10.02;;
70576;SDS011;58138;43.138;24.702;2023-02-05T10:03:27;20.77;;;10.40;;
70576;SDS011;58138;43.138;24.702;2023-02-05T10:17:31;15.20;;;9.07;;
70576;SDS011;58138;43.138;24.702;2023-02-05T10:20:29;16.65;;;10.85;;
70576;SDS011;58138;43.138;24.702;2023-02-05T10:23:16;9.05;;;6.57;;
70576;SDS011;58138;43.138;24.702;2023-02-05T10:25:57;23.02;;;13.63;;
70576;SDS011;58138;43.138;24.702;2023-02-05T10:33:53;20.10;;;9.45;;
70576;SDS011;58138;43.138;24.702;2023-02-05T10:36:22;12.50;;;7.97;;
70576;SDS011;58138;43.138;24.702;2023-02-05T10:38:50;33.30;;;18.98;;
70576;SDS011;58138;43.138;24.702;2023-02-05T10:44:00;13.68;;;7.28;;
70576;SDS011;58138;43.138;24.702;2023-02-05T10:46:31;13.02;;;7.18;;
70576;SDS011;58138;43.138;24.702;2023-02-05T10:49:11;38.45;;;21.67;;
70576;SDS011;58138;43.138;24.702;2023-02-05T10:51:40;14.95;;;9.68;;
70576;SDS011;58138;43.138;24.702;2023-02-05T10:56:54;15.75;;;9.15;;
70576;SDS011;58138;43.138;24.702;2023-02-05T10:59:32;17.23;;;10.43;;
70576;SDS011;58138;43.138;24.702;2023-02-05T11:02:01;10.77;;;6.85;;
70576;SDS011;58138;43.138;24.702;2023-02-05T11:07:10;14.82;;;8.57;;
70576;SDS011;58138;43.138;24.702;2023-02-05T11:09:37;12.77;;;8.77;;
70576;SDS011;58138;43.138;24.702;2023-02-05T11:12:26;24.83;;;11.88;;
70576;SDS011;58138;43.138;24.702;2023-02-05T11:14:54;11.38;;;7.78;;
70576;SDS011;58138;43.138;24.702;2023-02-05T11:17:28;12.02;;;6.72;;
70576;SDS011;58138;43.138;24.702;2023-02-05T11:20:03;9.75;;;6.95;;
70576;SDS011;58138;43.138;24.702;2023-02-05T11:22:35;9.65;;;7.28;;
70576;SDS011;58138;43.138;24.702;2023-02-05T11:27:39;9.73;;;6.60;;
70576;SDS011;58138;43.138;24.702;2023-02-05T11:30:26;10.63;;;6.35;;
70576;SDS011;58138;43.138;24.702;2023-02-05T11:32:55;11.05;;;7.38;;
70576;SDS011;58138;43.138;24.702;2023-02-05T11:35:30;33.20;;;17.30;;
70576;SDS011;58138;43.138;24.702;2023-02-05T11:40:33;15.32;;;9.43;;
70576;SDS011;58138;43.138;24.702;2023-02-05T11:43:02;22.55;;;13.18;;
70576;SDS011;58138;43.138;24.702;2023-02-05T11:45:34;18.85;;;10.25;;
70576;SDS011;58138;43.138;24.702;2023-02-05T11:48:04;16.00;;;9.38;;
70576;SDS011;58138;43.138;24.702;2023-02-05T11:50:44;13.20;;;7.68;;
70576;SDS011;58138;43.138;24.702;2023-02-05T11:53:14;18.17;;;11.15;;
70576;SDS011;58138;43.138;24.702;2023-02-05T11:55:41;19.75;;;10.63;;
70576;SDS011;58138;43.138;24.702;2023-02-05T12:00:55;16.02;;;10.23;;
70576;SDS011;58138;43.138;24.702;2023-02-05T12:03:23;12.63;;;9.32;;
70576;SDS011;58138;43.138;24.702;2023-02-05T12:06:37;18.55;;;11.57;;
70576;SDS011;58138;43.138;24.702;2023-02-05T12:14:00;14.30;;;9.70;;
70576;SDS011;58138;43.138;24.702;2023-02-05T12:19:17;14.60;;;9.73;;
70576;SDS011;58138;43.138;24.702;2023-02-05T12:24:24;13.18;;;9.10;;
70576;SDS011;58138;43.138;24.702;2023-02-05T12:27:05;9.57;;;6.57;;
70576;SDS011;58138;43.138;24.702;2023-02-05T12:35:26;15.27;;;10.20;;
70576;SDS011;58138;43.138;24.702;2023-02-05T12:40:37;11.63;;;7.47;;
70576;SDS011;58138;43.138;24.702;2023-02-05T12:43:10;11.32;;;5.63;;
70576;SDS011;58138;43.138;24.702;2023-02-05T12:46:34;11.55;;;7.93;;
70576;SDS011;58138;43.138;24.702;2023-02-05T12:56:38;21.98;;;14.35;;
70576;SDS011;58138;43.138;24.702;2023-02-05T12:59:14;24.30;;;13.68;;
70576;SDS011;58138;43.138;24.702;2023-02-05T13:01:58;26.45;;;16.13;;
70576;SDS011;58138;43.138;24.702;2023-02-05T13:04:47;31.75;;;17.85;;
70576;SDS011;58138;43.138;24.702;2023-02-05T13:10:03;23.50;;;14.43;;
70576;SDS011;58138;43.138;24.702;2023-02-05T13:12:31;19.70;;;11.18;;
70576;SDS011;58138;43.138;24.702;2023-02-05T13:15:06;17.77;;;10.77;;
70576;SDS011;58138;43.138;24.702;2023-02-05T13:18:00;17.83;;;9.50;;
70576;SDS011;58138;43.138;24.702;2023-02-05T13:20:41;20.25;;;12.82;;
70576;SDS011;58138;43.138;24.702;2023-02-05T13:23:27;22.48;;;12.30;;
70576;SDS011;58138;43.138;24.702;2023-02-05T13:26:15;13.52;;;9.13;;
70576;SDS011;58138;43.138;24.702;2023-02-05T13:29:05;15.25;;;8.93;;
70576;SDS011;58138;43.138;24.702;2023-02-05T13:31:37;21.17;;;12.52;;
70576;SDS011;58138;43.138;24.702;2023-02-05T13:34:06;26.00;;;14.90;;
70576;SDS011;58138;43.138;24.702;2023-02-05T13:36:45;29.60;;;15.52;;
70576;SDS011;58138;43.138;24.702;2023-02-05T14:04:24;29.65;;;16.83;;
70576;SDS011;58138;43.138;24.702;2023-02-05T14:06:55;24.25;;;14.32;;
70576;SDS011;58138;43.138;24.702;2023-02-05T14:09:33;23.95;;;15.02;;
70576;SDS011;58138;43.138;24.702;2023-02-05T14:12:08;34.10;;;21.25;;
70576;SDS011;58138;43.138;24.702;2023-02-05T14:14:38;42.80;;;25.20;;
70576;SDS011;58138;43.138;24.702;2023-02-05T14:19:57;25.48;;;15.45;;
70576;SDS011;58138;43.138;24.702;2023-02-05T14:22:42;28.83;;;17.77;;
70576;SDS011;58138;43.138;24.702;2023-02-05T14:28:03;27.02;;;16.92;;
70576;SDS011;58138;43.138;24.702;2023-02-05T14:38:52;24.58;;;14.15;;
70576;SDS011;58138;43.138;24.702;2023-02-05T14:41:21;30.85;;;16.20;;
70576;SDS011;58138;43.138;24.702;2023-02-05T14:43:54;24.83;;;13.15;;
70576;SDS011;58138;43.138;24.702;2023-02-05T14:48:53;31.05;;;18.95;;
70576;SDS011;58138;43.138;24.702;2023-02-05T14:51:25;25.83;;;15.88;;
70576;SDS011;58138;43.138;24.702;2023-02-05T14:54:03;17.98;;;11.35;;
70576;SDS011;58138;43.138;24.702;2023-02-05T14:56:33;15.00;;;10.40;;
70576;SDS011;58138;43.138;24.702;2023-02-05T14:59:15;20.63;;;13.05;;
70576;SDS011;58138;43.138;24.702;2023-02-05T15:01:44;19.95;;;12.27;;
70576;SDS011;58138;43.138;24.702;2023-02-05T15:04:15;25.10;;;15.63;;
70576;SDS011;58138;43.138;24.702;2023-02-05T15:06:53;21.23;;;12.20;;
70576;SDS011;58138;43.138;24.702;2023-02-05T15:09:21;21.33;;;12.77;;
70576;SDS011;58138;43.138;24.702;2023-02-05T15:14:37;19.17;;;11.45;;
70576;SDS011;58138;43.138;24.702;2023-02-05T15:19:41;24.63;;;13.63;;
70576;SDS011;58138;43.138;24.702;2023-02-05T15:22:20;25.50;;;14.15;;
70576;SDS011;58138;43.138;24.702;2023-02-05T15:24:50;26.90;;;15.25;;
70576;SDS011;58138;43.138;24.702;2023-02-05T15:27:18;27.92;;;14.18;;
70576;SDS011;58138;43.138;24.702;2023-02-05T15:29:47;18.90;;;10.70;;
70576;SDS011;58138;43.138;24.702;2023-02-05T15:32:32;23.95;;;13.48;;
70576;SDS011;58138;43.138;24.702;2023-02-05T15:35:30;26.67;;;15.75;;
70576;SDS011;58138;43.138;24.702;2023-02-05T15:37:59;30.92;;;18.38;;
70576;SDS011;58138;43.138;24.702;2023-02-05T15:40:39;31.77;;;18.23;;
70576;SDS011;58138;43.138;24.702;2023-02-05T15:43:13;29.25;;;18.52;;
70576;SDS011;58138;43.138;24.702;2023-02-05T15:45:40;32.05;;;19.50;;
70576;SDS011;58138;43.138;24.702;2023-02-05T15:55:57;69.28;;;32.67;;
70576;SDS011;58138;43.138;24.702;2023-02-05T15:58:24;47.50;;;26.80;;
70576;SDS011;58138;43.138;24.702;2023-02-05T16:00:52;49.80;;;28.33;;
70576;SDS011;58138;43.138;24.702;2023-02-05T16:03:25;30.48;;;18.92;;
70576;SDS011;58138;43.138;24.702;2023-02-05T16:05:56;30.85;;;19.55;;
70576;SDS011;58138;43.138;24.702;2023-02-05T16:08:22;29.92;;;16.63;;
70576;SDS011;58138;43.138;24.702;2023-02-05T16:10:57;33.40;;;20.77;;
70576;SDS011;58138;43.138;24.702;2023-02-05T16:13:27;35.80;;;21.75;;
70576;SDS011;58138;43.138;24.702;2023-02-05T16:16:36;34.60;;;20.30;;
70576;SDS011;58138;43.138;24.702;2023-02-05T16:18:48;33.80;;;21.23;;
70576;SDS011;58138;43.138;24.702;2023-02-05T16:21:21;34.33;;;20.52;;
70576;SDS011;58138;43.138;24.702;2023-02-05T16:23:57;34.33;;;20.50;;
70576;SDS011;58138;43.138;24.702;2023-02-05T16:29:19;44.97;;;25.45;;
70576;SDS011;58138;43.138;24.702;2023-02-05T16:32:02;50.78;;;28.65;;
70576;SDS011;58138;43.138;24.702;2023-02-05T16:34:29;35.13;;;19.90;;
70576;SDS011;58138;43.138;24.702;2023-02-05T16:36:56;26.10;;;16.20;;
70576;SDS011;58138;43.138;24.702;2023-02-05T16:39:37;32.53;;;19.55;;
70576;SDS011;58138;43.138;24.702;2023-02-05T16:42:13;34.50;;;21.98;;
70576;SDS011;58138;43.138;24.702;2023-02-05T16:47:30;69.65;;;28.27;;
70576;SDS011;58138;43.138;24.702;2023-02-05T16:49:56;49.80;;;25.73;;
70576;SDS011;58138;43.138;24.702;2023-02-05T16:54:56;41.65;;;20.73;;
70576;SDS011;58138;43.138;24.702;2023-02-05T16:57:44;27.55;;;15.93;;
70576;SDS011;58138;43.138;24.702;2023-02-05T17:00:19;25.52;;;14.23;;
70576;SDS011;58138;43.138;24.702;2023-02-05T17:02:47;38.97;;;20.63;;
70576;SDS011;58138;43.138;24.702;2023-02-05T17:05:27;37.67;;;19.15;;
70576;SDS011;58138;43.138;24.702;2023-02-05T17:07:57;36.38;;;18.90;;
70576;SDS011;58138;43.138;24.702;2023-02-05T17:10:27;61.77;;;26.77;;
70576;SDS011;58138;43.138;24.702;2023-02-05T17:12:54;52.63;;;25.95;;
70576;SDS011;58138;43.138;24.702;2023-02-05T17:18:00;25.67;;;14.23;;
70576;SDS011;58138;43.138;24.702;2023-02-05T17:20:45;26.67;;;15.90;;
70576;SDS011;58138;43.138;24.702;2023-02-05T17:23:13;20.45;;;12.90;;
70576;SDS011;58138;43.138;24.702;2023-02-05T17:25:40;27.83;;;16.70;;